Overseas Milos — V7WR8 — position and weather

sailwx.info

Track history (hours):
 
Tides and Currents Weather Stations Pressure Air Temp Water Temp Dewpoint Dewpoint Depression Visibility Wind Speed Wind Dir Waves Ship Positions

Overseas Milos

Last reported at 2016-Sep-28 03:33 UTC. Time now 2016-Sep-30 04:57 UTC.
Position N 49°43' W 006°46'.

Length 183 m; draft 11.3 m.

Type: Tanker. MMSI: 538004376.

Date/timePositionNaut miles runAvg speedWind from/ knotsBaromVisibWave heightAir tempDewpointWater temp
2016-Sep-28 03:33N 49°43' W 006°46'1111.1
2016-Sep-28 02:33N 49°43' W 006°29'1111.5
2016-Sep-28 01:33N 49°43' W 006°11'2411.9
2016-Sep-27 23:33N 49°44' W 005°34'5112.8
2016-Sep-27 19:33N 49°50' W 004°15'5611.2
2016-Sep-27 14:33N 50°00' W 002°50'17712.6
2016-Sep-27 00:33N 51°05' E 001°29'4611.5
2016-Sep-26 20:33N 51°41' E 002°16'6312.5
2016-Sep-26 15:33N 52°03' E 003°50'19 9.3
2016-Sep-26 13:33N 51°54' E 004°17'3 1.6
2016-Sep-26 11:24N 51°53' E 004°22'0 0.0
2016-Sep-26 08:12N 51°53' E 004°22'0 0.0
2016-Sep-26 02:33N 51°53' E 004°22'0 0.0
2016-Sep-26 01:21N 51°53' E 004°22'0 0.0
2016-Sep-26 00:24N 51°53' E 004°22'0 0.0
2016-Sep-25 21:30N 51°53' E 004°22'0 0.0
2016-Sep-25 17:24N 51°53' E 004°22'0 0.0
2016-Sep-25 16:20N 51°53' E 004°22'0 0.0
2016-Sep-25 15:27N 51°53' E 004°22'0 0.0
2016-Sep-25 14:23N 51°53' E 004°22'0 0.0
2016-Sep-25 12:30N 51°53' E 004°22'0 0.0
2016-Sep-25 11:32N 51°53' E 004°22'0 0.0
2016-Sep-25 10:29N 51°53' E 004°22'0 0.0
2016-Sep-25 09:23N 51°53' E 004°22'0 0.0
2016-Sep-25 07:27N 51°53' E 004°22'0 0.0
2016-Sep-25 04:32N 51°53' E 004°22'0 0.0
2016-Sep-25 00:29N 51°53' E 004°22'0 0.0
2016-Sep-24 22:29N 51°53' E 004°22'0 0.0
2016-Sep-24 21:32N 51°53' E 004°22'0 0.0
2016-Sep-24 19:23N 51°53' E 004°22'0 0.0
2016-Sep-24 18:33N 51°53' E 004°22'0 0.0
2016-Sep-24 16:20N 51°53' E 004°22'0 0.0
2016-Sep-24 14:26N 51°53' E 004°22'0 0.0
2016-Sep-24 12:32N 51°53' E 004°22'0 0.0
2016-Sep-24 10:29N 51°53' E 004°22'0 0.0
2016-Sep-24 09:30N 51°53' E 004°22'0 0.0
2016-Sep-24 03:32N 51°53' E 004°22'0 0.0
2016-Sep-24 02:32N 51°53' E 004°22'0 0.0
2016-Sep-24 01:33N 51°53' E 004°22'0 0.0
2016-Sep-24 00:30N 51°53' E 004°22'0 0.0
2016-Sep-23 19:29N 51°53' E 004°22'0 0.0
2016-Sep-23 17:32N 51°53' E 004°22'0 0.0
2016-Sep-23 16:29N 51°53' E 004°22'0 0.0
2016-Sep-23 15:30N 51°53' E 004°22'0 0.0
2016-Sep-23 13:33N 51°53' E 004°22'0 0.0
2016-Sep-23 09:29N 51°53' E 004°22'0 0.0
2016-Sep-23 06:33N 51°53' E 004°22'0 0.0
2016-Sep-23 04:32N 51°53' E 004°22'0 0.0
2016-Sep-23 03:34N 51°53' E 004°22'3 3.3
2016-Sep-23 02:33N 51°54' E 004°17'9 9.5
2016-Sep-23 01:33N 51°59' E 004°04'1010.4
2016-Sep-23 00:34N 52°00' E 003°47'10 9.5
2016-Sep-22 23:33N 51°55' E 003°34'0 0.0
2016-Sep-22 04:31N 51°55' E 003°34'0 0.0
2016-Sep-22 03:31N 51°55' E 003°34'0 0.1
2016-Sep-22 00:31N 51°55' E 003°34'0 0.0
2016-Sep-21 23:22N 51°55' E 003°34'0 0.0
2016-Sep-21 22:28N 51°55' E 003°34'0 0.0
2016-Sep-21 09:28N 51°55' E 003°34'0 0.1
2016-Sep-21 08:28N 51°55' E 003°34'0 0.0
2016-Sep-21 05:28N 51°55' E 003°34'0 0.0
2016-Sep-21 03:25N 51°55' E 003°34'0 0.2
2016-Sep-21 02:31N 51°55' E 003°34'41 3.4
2016-Sep-20 14:33N 51°41' E 002°32'1413.4
2016-Sep-20 13:33N 51°32' E 002°17'3311.2
2016-Sep-20 10:33N 51°05' E 001°44'19 9.4
2016-Sep-20 08:33N 50°51' E 001°26'6610.9
2016-Sep-20 02:33N 50°19' W 000°05'10815.5
2016-Sep-19 19:33N 49°50' W 002°48'1515.0
2016-Sep-19 18:33N 49°45' W 003°09'9112.3
2016-Sep-19 11:10N 48°59' W 005°10'  
Track history (hours):
 
Tides and Currents Weather Stations Pressure Air Temp Water Temp Dewpoint Dewpoint Depression Visibility Wind Speed Wind Dir Waves Ship Positions

Overseas Milos

Last reported at 2016-Sep-28 03:33 UTC. Time now 2016-Sep-30 04:57 UTC.
Position N 49°43' W 006°46'.

Length 183 m; draft 11.3 m.

Type: Tanker. MMSI: 538004376.

Date/timePositionNaut miles runAvg speedWind from/ knotsBaromVisibWave heightAir tempDewpointWater temp
2016-Sep-28 03:33N 49°43' W 006°46'1111.1
2016-Sep-28 02:33N 49°43' W 006°29'1111.5
2016-Sep-28 01:33N 49°43' W 006°11'2411.9
2016-Sep-27 23:33N 49°44' W 005°34'5112.8
2016-Sep-27 19:33N 49°50' W 004°15'5611.2
2016-Sep-27 14:33N 50°00' W 002°50'17712.6
2016-Sep-27 00:33N 51°05' E 001°29'4611.5
2016-Sep-26 20:33N 51°41' E 002°16'6312.5
2016-Sep-26 15:33N 52°03' E 003°50'19 9.3
2016-Sep-26 13:33N 51°54' E 004°17'3 1.6
2016-Sep-26 11:24N 51°53' E 004°22'0 0.0
2016-Sep-26 08:12N 51°53' E 004°22'0 0.0
2016-Sep-26 02:33N 51°53' E 004°22'0 0.0
2016-Sep-26 01:21N 51°53' E 004°22'0 0.0
2016-Sep-26 00:24N 51°53' E 004°22'0 0.0
2016-Sep-25 21:30N 51°53' E 004°22'0 0.0
2016-Sep-25 17:24N 51°53' E 004°22'0 0.0
2016-Sep-25 16:20N 51°53' E 004°22'0 0.0
2016-Sep-25 15:27N 51°53' E 004°22'0 0.0
2016-Sep-25 14:23N 51°53' E 004°22'0 0.0
2016-Sep-25 12:30N 51°53' E 004°22'0 0.0
2016-Sep-25 11:32N 51°53' E 004°22'0 0.0
2016-Sep-25 10:29N 51°53' E 004°22'0 0.0
2016-Sep-25 09:23N 51°53' E 004°22'0 0.0
2016-Sep-25 07:27N 51°53' E 004°22'0 0.0
2016-Sep-25 04:32N 51°53' E 004°22'0 0.0
2016-Sep-25 00:29N 51°53' E 004°22'0 0.0
2016-Sep-24 22:29N 51°53' E 004°22'0 0.0
2016-Sep-24 21:32N 51°53' E 004°22'0 0.0
2016-Sep-24 19:23N 51°53' E 004°22'0 0.0
2016-Sep-24 18:33N 51°53' E 004°22'0 0.0
2016-Sep-24 16:20N 51°53' E 004°22'0 0.0
2016-Sep-24 14:26N 51°53' E 004°22'0 0.0
2016-Sep-24 12:32N 51°53' E 004°22'0 0.0
2016-Sep-24 10:29N 51°53' E 004°22'0 0.0
2016-Sep-24 09:30N 51°53' E 004°22'0 0.0
2016-Sep-24 03:32N 51°53' E 004°22'0 0.0
2016-Sep-24 02:32N 51°53' E 004°22'0 0.0
2016-Sep-24 01:33N 51°53' E 004°22'0 0.0
2016-Sep-24 00:30N 51°53' E 004°22'0 0.0
2016-Sep-23 19:29N 51°53' E 004°22'0 0.0
2016-Sep-23 17:32N 51°53' E 004°22'0 0.0
2016-Sep-23 16:29N 51°53' E 004°22'0 0.0
2016-Sep-23 15:30N 51°53' E 004°22'0 0.0
2016-Sep-23 13:33N 51°53' E 004°22'0 0.0
2016-Sep-23 09:29N 51°53' E 004°22'0 0.0
2016-Sep-23 06:33N 51°53' E 004°22'0 0.0
2016-Sep-23 04:32N 51°53' E 004°22'0 0.0
2016-Sep-23 03:34N 51°53' E 004°22'3 3.3
2016-Sep-23 02:33N 51°54' E 004°17'9 9.5
2016-Sep-23 01:33N 51°59' E 004°04'1010.4
2016-Sep-23 00:34N 52°00' E 003°47'10 9.5
2016-Sep-22 23:33N 51°55' E 003°34'0 0.0
2016-Sep-22 04:31N 51°55' E 003°34'0 0.0
2016-Sep-22 03:31N 51°55' E 003°34'0 0.1
2016-Sep-22 00:31N 51°55' E 003°34'0 0.0
2016-Sep-21 23:22N 51°55' E 003°34'0 0.0
2016-Sep-21 22:28N 51°55' E 003°34'0 0.0
2016-Sep-21 09:28N 51°55' E 003°34'0 0.1
2016-Sep-21 08:28N 51°55' E 003°34'0 0.0
2016-Sep-21 05:28N 51°55' E 003°34'0 0.0
2016-Sep-21 03:25N 51°55' E 003°34'0 0.2
2016-Sep-21 02:31N 51°55' E 003°34'41 3.4
2016-Sep-20 14:33N 51°41' E 002°32'1413.4
2016-Sep-20 13:33N 51°32' E 002°17'3311.2
2016-Sep-20 10:33N 51°05' E 001°44'19 9.4
2016-Sep-20 08:33N 50°51' E 001°26'6610.9
2016-Sep-20 02:33N 50°19' W 000°05'10815.5
2016-Sep-19 19:33N 49°50' W 002°48'1515.0
2016-Sep-19 18:33N 49°45' W 003°09'9112.3
2016-Sep-19 11:10N 48°59' W 005°10'  

Dump ship's entire track history